Time;durP1;ratioP1;P1;durP2;ratioP2;P2;SDS_P1;SDS_P2;PMS_P1;PMS_P2;Temp;Humidity;BMP_temperature;BMP_pressure;BME280_temperature;BME280_humidity;BME280_pressure;Samples;Min_cycle;Max_cycle;Signal;HPM_P1;HPM_P2
2023/05/13 00:01:59;;;;;;;9.18;6.38;;;15.00;99.90;;;;;;5022982;28;20033;-78
2023/05/13 00:04:25;;;;;;;15.13;7.70;;;15.00;99.90;;;;;;5026919;28;20075;-78
2023/05/13 00:06:51;;;;;;;14.02;7.88;;;15.00;99.90;;;;;;5021485;28;20020;-79
2023/05/13 00:09:16;;;;;;;9.40;7.00;;;15.00;99.90;;;;;;5024032;28;20032;-79
2023/05/13 00:11:42;;;;;;;10.20;6.20;;;15.00;99.90;;;;;;5022916;28;20030;-79
2023/05/13 00:14:09;;;;;;;11.20;6.10;;;14.90;99.90;;;;;;5004756;28;20029;-79
2023/05/13 00:16:35;;;;;;;14.32;6.35;;;14.90;99.90;;;;;;5008615;28;20052;-80
2023/05/13 00:19:00;;;;;;;25.88;5.95;;;14.90;99.90;;;;;;5021747;28;20135;-79
2023/05/13 00:21:26;;;;;;;8.15;6.10;;;14.80;99.90;;;;;;5024704;28;20100;-79
2023/05/13 00:23:52;;;;;;;11.73;6.00;;;14.80;99.90;;;;;;5010496;28;20017;-78
2023/05/13 00:26:17;;;;;;;10.82;6.25;;;14.80;99.90;;;;;;5025484;28;20685;-78
2023/05/13 00:28:43;;;;;;;10.07;5.88;;;14.80;99.90;;;;;;5007017;28;20021;-78
2023/05/13 00:31:09;;;;;;;7.78;5.72;;;14.80;99.90;;;;;;5024844;28;20520;-78
2023/05/13 00:33:34;;;;;;;11.20;6.15;;;14.70;99.90;;;;;;5010497;28;20041;-78
2023/05/13 00:36:00;;;;;;;7.15;6.03;;;14.70;99.90;;;;;;5005637;28;20044;-79
2023/05/13 00:38:25;;;;;;;7.47;5.35;;;14.70;99.90;;;;;;5022318;28;20148;-78
2023/05/13 00:40:51;;;;;;;10.75;5.93;;;14.70;99.90;;;;;;5022078;28;20029;-78
2023/05/13 00:43:17;;;;;;;7.38;6.18;;;14.70;99.90;;;;;;5022328;28;20051;-78
2023/05/13 00:45:42;;;;;;;11.27;6.00;;;14.60;99.90;;;;;;5008678;28;20167;-78
2023/05/13 00:48:08;;;;;;;10.05;5.72;;;14.60;99.90;;;;;;5020881;28;20036;-78
2023/05/13 00:50:34;;;;;;;12.57;7.18;;;14.60;99.90;;;;;;5025567;28;20041;-78
2023/05/13 00:53:02;;;;;;;6.97;5.90;;;14.50;99.90;;;;;;5009944;28;20488;-78
2023/05/13 00:55:29;;;;;;;10.35;6.72;;;14.50;99.90;;;;;;5022857;28;20053;-79
2023/05/13 00:57:55;;;;;;;9.07;6.78;;;14.50;99.90;;;;;;5021520;28;20116;-78
2023/05/13 01:00:21;;;;;;;9.75;6.32;;;14.50;99.90;;;;;;5023662;28;20109;-78
2023/05/13 01:03:09;;;;;;;9.85;5.85;;;14.40;99.90;;;;;;5020490;28;20067;-77
2023/05/13 01:06:03;;;;;;;17.60;6.28;;;14.40;99.90;;;;;;5022340;28;20063;-78
2023/05/13 01:08:31;;;;;;;14.25;6.35;;;14.40;99.90;;;;;;5003276;28;20026;-78
2023/05/13 01:11:03;;;;;;;6.70;6.05;;;14.30;99.90;;;;;;5002517;28;20042;-78
2023/05/13 01:13:41;;;;;;;11.75;6.32;;;14.30;99.90;;;;;;5007370;28;20099;-78
2023/05/13 01:16:20;;;;;;;9.10;6.53;;;14.30;99.90;;;;;;5008666;28;20044;-78
2023/05/13 01:18:51;;;;;;;8.60;6.55;;;14.20;99.90;;;;;;5022662;28;20192;-78
2023/05/13 01:21:25;;;;;;;9.73;6.35;;;14.10;99.90;;;;;;5008983;28;20844;-78
2023/05/13 01:23:51;;;;;;;13.40;6.40;;;14.10;99.90;;;;;;5023292;28;20094;-78
2023/05/13 01:26:17;;;;;;;9.10;6.47;;;14.00;99.90;;;;;;5016668;28;20442;-78
2023/05/13 01:28:43;;;;;;;8.10;6.47;;;13.90;99.90;;;;;;5024482;28;20102;-79
2023/05/13 01:31:09;;;;;;;7.53;6.57;;;13.90;99.90;;;;;;5026864;28;20461;-78
2023/05/13 01:33:36;;;;;;;8.82;7.03;;;13.90;99.90;;;;;;5009299;28;20534;-78
2023/05/13 01:36:02;;;;;;;11.00;6.70;;;13.80;99.90;;;;;;5028378;28;20082;-78
2023/05/13 01:38:30;;;;;;;7.15;6.50;;;13.80;99.90;;;;;;5024307;28;20037;-78
2023/05/13 01:40:57;;;;;;;17.38;7.30;;;13.70;99.90;;;;;;5008957;28;20336;-78
2023/05/13 01:43:23;;;;;;;12.20;6.53;;;13.70;99.90;;;;;;5008936;28;20021;-78
2023/05/13 01:45:49;;;;;;;7.85;6.70;;;13.60;99.90;;;;;;5009380;28;20087;-78
2023/05/13 01:48:14;;;;;;;7.88;6.25;;;13.60;99.90;;;;;;5021244;28;20089;-78
2023/05/13 01:50:40;;;;;;;9.82;7.22;;;13.50;99.90;;;;;;5025975;28;20477;-78
2023/05/13 01:53:05;;;;;;;13.77;6.90;;;13.50;99.90;;;;;;5027190;28;20247;-78
2023/05/13 01:55:31;;;;;;;9.02;6.90;;;13.40;99.90;;;;;;5027558;28;20128;-78
2023/05/13 01:57:56;;;;;;;8.52;6.50;;;13.40;99.90;;;;;;5008555;28;20060;-78
2023/05/13 02:00:25;;;;;;;9.40;7.65;;;13.40;99.90;;;;;;5009653;28;20755;-78
2023/05/13 02:02:50;;;;;;;13.23;6.75;;;13.40;99.90;;;;;;5025602;28;20029;-78
2023/05/13 02:05:16;;;;;;;8.63;6.88;;;13.40;99.90;;;;;;5027288;28;20788;-78
2023/05/13 02:07:41;;;;;;;14.57;6.63;;;13.40;99.90;;;;;;5006550;28;20036;-78
2023/05/13 02:10:07;;;;;;;8.07;6.93;;;13.40;99.90;;;;;;5025016;28;20591;-78
2023/05/13 02:12:33;;;;;;;13.07;7.22;;;13.40;99.90;;;;;;5028660;28;20120;-78
2023/05/13 02:15:02;;;;;;;10.48;7.07;;;13.40;99.90;;;;;;5026319;28;20021;-78
2023/05/13 02:17:27;;;;;;;11.48;7.00;;;13.40;99.90;;;;;;5023962;28;20453;-78
2023/05/13 02:19:53;;;;;;;15.45;7.07;;;13.40;99.90;;;;;;5026039;28;20060;-79
2023/05/13 02:22:21;;;;;;;8.40;7.53;;;13.40;99.90;;;;;;5027612;28;20021;-78
2023/05/13 02:24:46;;;;;;;7.82;6.43;;;13.40;99.90;;;;;;5024354;28;20025;-78
2023/05/13 02:27:15;;;;;;;7.35;6.65;;;13.30;99.90;;;;;;5023202;28;20095;-79
2023/05/13 02:29:40;;;;;;;13.50;7.15;;;13.30;99.90;;;;;;5028305;28;20030;-78
2023/05/13 02:32:06;;;;;;;12.07;7.55;;;13.20;99.90;;;;;;5009214;28;20063;-78
2023/05/13 02:34:32;;;;;;;7.82;7.03;;;13.20;99.90;;;;;;5028782;28;20120;-79
2023/05/13 02:36:57;;;;;;;10.50;6.90;;;13.10;99.90;;;;;;5026313;28;20762;-78
2023/05/13 02:39:23;;;;;;;8.48;7.10;;;13.10;99.90;;;;;;5020522;28;20018;-78
2023/05/13 02:41:49;;;;;;;9.57;7.28;;;13.10;99.90;;;;;;5033586;28;20032;-77
2023/05/13 02:44:17;;;;;;;9.02;7.10;;;13.10;99.90;;;;;;5023068;28;20029;-78
2023/05/13 02:46:43;;;;;;;12.35;7.80;;;13.10;99.90;;;;;;5021719;28;20048;-79
2023/05/13 02:49:09;;;;;;;11.55;7.95;;;13.10;99.90;;;;;;5024061;28;20021;-77
2023/05/13 02:51:35;;;;;;;9.20;7.35;;;13.10;99.90;;;;;;5023796;28;20037;-78
2023/05/13 02:54:01;;;;;;;11.40;7.50;;;13.10;99.90;;;;;;5028297;28;20107;-78
2023/05/13 02:56:28;;;;;;;11.25;7.63;;;13.00;99.90;;;;;;5008054;28;20037;-77
2023/05/13 02:58:54;;;;;;;11.13;7.63;;;13.10;99.90;;;;;;5025958;28;20017;-77
2023/05/13 03:01:20;;;;;;;10.35;7.72;;;13.00;99.90;;;;;;5025466;28;20033;-78
2023/05/13 03:03:45;;;;;;;10.20;7.57;;;13.00;99.90;;;;;;5024639;28;20024;-78
2023/05/13 03:06:11;;;;;;;12.07;8.20;;;13.00;99.90;;;;;;5024263;28;20464;-78
2023/05/13 03:08:36;;;;;;;11.68;8.27;;;13.00;99.90;;;;;;5024029;28;20381;-78
2023/05/13 03:11:02;;;;;;;9.60;7.65;;;12.90;99.90;;;;;;5025704;28;20035;-78
2023/05/13 03:13:28;;;;;;;12.50;8.20;;;12.90;99.90;;;;;;5022339;28;20091;-78
2023/05/13 03:15:53;;;;;;;10.30;8.13;;;12.90;99.90;;;;;;5024053;28;20268;-78
2023/05/13 03:18:19;;;;;;;11.63;8.07;;;12.80;99.90;;;;;;5006326;28;20024;-78
2023/05/13 03:20:45;;;;;;;9.70;7.60;;;12.80;99.90;;;;;;5009707;28;20024;-78
2023/05/13 03:23:13;;;;;;;12.73;8.18;;;12.80;99.90;;;;;;5026701;28;20436;-78
2023/05/13 03:25:38;;;;;;;11.07;8.30;;;12.80;99.90;;;;;;5022538;28;20072;-78
2023/05/13 03:28:04;;;;;;;10.93;7.88;;;12.70;99.90;;;;;;5019304;28;20037;-78
2023/05/13 03:30:30;;;;;;;12.95;8.30;;;12.70;99.90;;;;;;4993908;28;20041;-78
2023/05/13 03:32:56;;;;;;;12.85;7.95;;;12.60;99.90;;;;;;5024289;28;20029;-77
2023/05/13 03:35:24;;;;;;;11.02;7.93;;;12.60;99.90;;;;;;5025595;28;20029;-78
2023/05/13 03:37:52;;;;;;;12.57;8.00;;;12.60;99.90;;;;;;5026074;28;20100;-78
2023/05/13 03:40:18;;;;;;;14.05;8.05;;;12.60;99.90;;;;;;5024018;28;20030;-78
2023/05/13 03:42:43;;;;;;;13.00;8.38;;;12.60;99.90;;;;;;5024155;28;20040;-77
2023/05/13 03:45:11;;;;;;;15.18;8.35;;;12.50;99.90;;;;;;5022887;28;20033;-78
2023/05/13 03:47:38;;;;;;;11.20;9.07;;;12.50;99.90;;;;;;5020301;28;20030;-78
2023/05/13 03:50:04;;;;;;;12.30;8.43;;;12.60;99.90;;;;;;5010635;28;20120;-78
2023/05/13 03:52:30;;;;;;;15.15;9.48;;;12.50;99.90;;;;;;5024836;28;20022;-78
2023/05/13 03:54:55;;;;;;;14.23;8.90;;;12.50;99.90;;;;;;5023229;28;20059;-78
2023/05/13 03:57:21;;;;;;;12.15;8.60;;;12.50;99.90;;;;;;5020955;28;20037;-78
2023/05/13 03:59:46;;;;;;;12.48;8.82;;;12.50;99.90;;;;;;5024251;28;20025;-78
2023/05/13 04:02:15;;;;;;;13.48;8.63;;;12.50;99.90;;;;;;5021098;28;20033;-78
2023/05/13 04:04:42;;;;;;;11.70;8.23;;;12.50;99.90;;;;;;5005763;28;20033;-78
2023/05/13 04:07:08;;;;;;;13.60;8.77;;;12.50;99.90;;;;;;5023110;28;20029;-78
2023/05/13 04:09:33;;;;;;;13.55;9.10;;;12.40;99.90;;;;;;5024372;28;20055;-77
2023/05/13 04:11:59;;;;;;;13.32;9.30;;;12.40;99.90;;;;;;5006635;28;20420;-78
2023/05/13 04:14:25;;;;;;;13.35;9.50;;;12.50;99.90;;;;;;5024222;28;20100;-78
2023/05/13 04:16:50;;;;;;;17.45;9.65;;;12.50;99.90;;;;;;5006804;28;20537;-78
2023/05/13 04:19:18;;;;;;;20.60;9.65;;;12.50;99.90;;;;;;5013090;28;20120;-78
2023/05/13 04:21:44;;;;;;;14.18;9.27;;;12.50;99.90;;;;;;5011768;28;20041;-78
2023/05/13 04:24:10;;;;;;;11.60;8.88;;;12.60;99.90;;;;;;5000762;28;20068;-78
2023/05/13 04:26:37;;;;;;;17.05;9.45;;;12.60;99.90;;;;;;5022747;28;20037;-78
2023/05/13 04:29:03;;;;;;;15.90;9.27;;;12.60;99.90;;;;;;5025459;28;20022;-78
2023/05/13 04:31:28;;;;;;;13.75;10.30;;;12.60;99.90;;;;;;5002064;28;20048;-78
2023/05/13 04:33:54;;;;;;;16.27;10.05;;;12.60;99.90;;;;;;5008679;28;20530;-78
2023/05/13 04:36:19;;;;;;;13.48;8.90;;;12.60;99.90;;;;;;5024727;28;20021;-78
2023/05/13 04:38:47;;;;;;;16.67;8.80;;;12.60;99.90;;;;;;5024752;28;20033;-77
2023/05/13 04:41:13;;;;;;;15.48;9.88;;;12.70;99.90;;;;;;5005614;28;20733;-78
2023/05/13 04:43:40;;;;;;;15.23;10.68;;;12.70;99.90;;;;;;5024899;28;20017;-77
2023/05/13 04:46:11;;;;;;;11.88;10.07;;;12.70;99.90;;;;;;5008491;28;20603;-78
2023/05/13 04:48:36;;;;;;;17.85;10.38;;;12.70;99.90;;;;;;5007162;28;21817;-77
2023/05/13 04:51:02;;;;;;;13.15;9.82;;;12.80;99.90;;;;;;5031217;28;20045;-78
2023/05/13 04:53:28;;;;;;;16.13;10.35;;;12.80;99.90;;;;;;5025529;28;20030;-78
2023/05/13 04:55:59;;;;;;;11.52;9.93;;;12.90;99.90;;;;;;5009124;28;20025;-78
2023/05/13 04:58:25;;;;;;;22.85;10.02;;;12.90;99.90;;;;;;5009174;28;20116;-78
2023/05/13 05:00:51;;;;;;;17.67;10.40;;;13.00;99.90;;;;;;5030612;28;20591;-78
2023/05/13 05:03:16;;;;;;;15.10;9.68;;;13.10;99.90;;;;;;5028424;28;20029;-78
2023/05/13 05:05:42;;;;;;;12.95;10.68;;;13.20;99.90;;;;;;5030911;28;20123;-78
2023/05/13 05:08:10;;;;;;;17.33;10.73;;;13.30;99.90;;;;;;5026870;28;20052;-78
2023/05/13 05:10:38;;;;;;;15.73;10.98;;;13.30;99.90;;;;;;5028418;28;20061;-77
2023/05/13 05:13:04;;;;;;;13.10;10.52;;;13.40;99.90;;;;;;5009633;28;20076;-78
2023/05/13 05:15:32;;;;;;;17.48;10.65;;;13.50;99.90;;;;;;5026827;28;20060;-79
2023/05/13 05:17:57;;;;;;;17.08;11.10;;;13.50;99.90;;;;;;5012415;28;20064;-78
2023/05/13 05:20:25;;;;;;;15.55;10.68;;;13.60;99.90;;;;;;5017619;28;20055;-78
2023/05/13 05:22:51;;;;;;;14.70;10.20;;;13.70;99.90;;;;;;5006982;28;20025;-78
2023/05/13 05:25:17;;;;;;;23.48;10.68;;;13.70;99.90;;;;;;5008808;28;20793;-79
2023/05/13 05:27:43;;;;;;;14.25;10.68;;;13.80;99.90;;;;;;4998224;28;20029;-78
2023/05/13 05:30:09;;;;;;;18.70;10.60;;;13.90;99.90;;;;;;5029991;28;20111;-78
2023/05/13 05:32:35;;;;;;;12.90;10.75;;;13.90;99.90;;;;;;5010227;28;20029;-79
2023/05/13 05:35:03;;;;;;;19.63;11.82;;;14.10;99.90;;;;;;5007493;28;20453;-78
2023/05/13 05:37:31;;;;;;;14.73;10.23;;;14.10;99.90;;;;;;5010513;28;20029;-78
2023/05/13 05:39:57;;;;;;;11.82;10.13;;;14.20;99.90;;;;;;5027143;28;20029;-78
2023/05/13 05:42:22;;;;;;;16.23;11.15;;;14.20;99.90;;;;;;5024017;28;20435;-78
2023/05/13 05:44:50;;;;;;;19.10;11.32;;;14.30;99.90;;;;;;5026318;28;20120;-78
2023/05/13 05:47:18;;;;;;;23.25;11.63;;;14.40;99.90;;;;;;5026392;28;20031;-78
2023/05/13 05:49:44;;;;;;;12.93;10.30;;;14.40;99.90;;;;;;5026578;28;20049;-82
2023/05/13 05:52:12;;;;;;;20.38;10.38;;;14.50;99.90;;;;;;5022080;28;20512;-82
2023/05/13 05:54:37;;;;;;;16.40;10.70;;;14.60;99.90;;;;;;5010081;28;20087;-80
2023/05/13 05:57:04;;;;;;;18.63;11.50;;;14.60;99.90;;;;;;5025475;28;20294;-81
2023/05/13 05:59:30;;;;;;;13.52;10.80;;;14.60;99.90;;;;;;5020098;28;20125;-78
2023/05/13 06:01:55;;;;;;;14.98;10.43;;;14.70;99.90;;;;;;5014147;28;20551;-78
2023/05/13 06:04:23;;;;;;;12.52;10.27;;;14.70;99.90;;;;;;5008135;28;20103;-78
2023/05/13 06:06:49;;;;;;;15.68;10.80;;;14.80;99.90;;;;;;5179293;22;20819;-79
2023/05/13 06:09:17;;;;;;;13.25;10.38;;;15.00;99.90;;;;;;5049638;28;20029;-82
2023/05/13 06:11:43;;;;;;;15.90;11.07;;;15.10;99.90;;;;;;5053748;28;20838;-82
2023/05/13 06:14:08;;;;;;;14.13;10.07;;;15.10;99.90;;;;;;5051815;28;20099;-78
2023/05/13 06:16:34;;;;;;;14.10;10.40;;;15.30;99.90;;;;;;5042464;28;20025;-77
2023/05/13 06:18:59;;;;;;;13.88;10.23;;;15.40;99.90;;;;;;5038624;28;20755;-78
2023/05/13 06:21:25;;;;;;;15.25;10.25;;;15.40;99.90;;;;;;5052398;28;20538;-78
2023/05/13 06:23:51;;;;;;;14.73;10.50;;;15.50;99.90;;;;;;5053412;28;20120;-78
2023/05/13 06:26:16;;;;;;;13.55;10.65;;;15.60;99.90;;;;;;5032758;28;20036;-79
2023/05/13 06:28:42;;;;;;;13.80;10.27;;;15.60;99.90;;;;;;5035038;28;20142;-81
2023/05/13 06:31:07;;;;;;;19.80;10.70;;;15.70;99.90;;;;;;5037557;28;20032;-80
2023/05/13 06:33:33;;;;;;;17.80;11.32;;;15.80;99.90;;;;;;5054744;28;20047;-80
2023/05/13 06:35:59;;;;;;;15.98;10.27;;;15.90;99.90;;;;;;5035434;28;20440;-80
2023/05/13 06:38:27;;;;;;;14.82;10.02;;;16.00;99.90;;;;;;5059009;28;20046;-82
2023/05/13 06:40:52;;;;;;;20.48;10.75;;;16.00;99.90;;;;;;5052585;28;20199;-81
2023/05/13 06:43:18;;;;;;;13.73;9.93;;;16.10;99.90;;;;;;5055521;28;20056;-80
2023/05/13 06:45:44;;;;;;;17.42;10.75;;;16.20;99.90;;;;;;5057506;28;20042;-80
2023/05/13 06:48:09;;;;;;;13.70;11.02;;;16.30;99.90;;;;;;5064086;28;20051;-81
2023/05/13 06:50:37;;;;;;;14.95;10.88;;;16.40;99.90;;;;;;5042399;28;20041;-82
2023/05/13 06:53:03;;;;;;;14.63;10.27;;;16.50;99.90;;;;;;5057146;28;20120;-82
2023/05/13 06:55:28;;;;;;;14.27;10.55;;;16.60;99.90;;;;;;5036852;28;20369;-81
2023/05/13 06:57:54;;;;;;;12.48;10.88;;;16.70;99.90;;;;;;5038235;28;20499;-81
2023/05/13 07:00:20;;;;;;;17.17;10.55;;;16.70;99.90;;;;;;5038739;28;20632;-81
2023/05/13 07:02:45;;;;;;;13.05;10.25;;;16.80;99.90;;;;;;5035151;28;20017;-79
2023/05/13 07:05:13;;;;;;;18.55;10.45;;;16.90;99.90;;;;;;5052987;28;20593;-79
2023/05/13 07:07:39;;;;;;;15.48;9.80;;;17.00;99.90;;;;;;5049050;28;20505;-79
2023/05/13 07:10:05;;;;;;;14.55;10.32;;;17.10;99.90;;;;;;5050732;28;20112;-79
2023/05/13 07:12:31;;;;;;;11.95;9.80;;;17.30;99.90;;;;;;5036021;28;20108;-79
2023/05/13 07:14:57;;;;;;;17.15;10.70;;;17.40;99.90;;;;;;5053349;28;20559;-78
2023/05/13 07:17:23;;;;;;;18.92;11.32;;;17.40;99.90;;;;;;5049452;28;20025;-78
2023/05/13 07:19:48;;;;;;;11.98;9.32;;;17.50;99.90;;;;;;5051069;28;20099;-81
2023/05/13 07:22:14;;;;;;;13.45;10.10;;;17.40;99.90;;;;;;5052110;28;20040;-80
2023/05/13 07:24:40;;;;;;;12.43;9.73;;;17.50;99.90;;;;;;5040516;28;20112;-79
2023/05/13 07:27:06;;;;;;;11.50;9.52;;;17.70;99.90;;;;;;5061113;28;20052;-81
2023/05/13 07:29:35;;;;;;;12.68;10.38;;;17.90;99.90;;;;;;5039842;28;20381;-78
2023/05/13 07:32:05;;;;;;;14.73;9.52;;;18.00;99.90;;;;;;5056155;28;20341;-82
2023/05/13 07:34:31;;;;;;;11.23;9.32;;;18.10;99.90;;;;;;5038060;28;20024;-82
2023/05/13 07:36:57;;;;;;;14.18;9.57;;;18.30;99.90;;;;;;5039020;28;20025;-81
2023/05/13 07:39:23;;;;;;;11.55;9.38;;;18.50;99.90;;;;;;5055820;28;20033;-83
2023/05/13 07:41:49;;;;;;;15.65;9.45;;;18.60;99.90;;;;;;5071098;28;20040;-82
2023/05/13 07:44:14;;;;;;;13.82;9.25;;;18.70;99.90;;;;;;5039291;28;20033;-81
2023/05/13 07:46:42;;;;;;;12.00;9.25;;;18.90;99.90;;;;;;5051616;28;20036;-81
2023/05/13 07:49:08;;;;;;;14.98;9.40;;;19.00;99.90;;;;;;5051211;28;20024;-87
2023/05/13 07:51:34;;;;;;;11.02;9.25;;;19.30;99.90;;;;;;5033523;28;20098;-84
2023/05/13 07:54:02;;;;;;;16.30;9.48;;;19.50;99.90;;;;;;5034353;28;20017;-82
2023/05/13 07:56:29;;;;;;;12.20;8.73;;;19.50;99.90;;;;;;5055141;28;20127;-81
2023/05/13 07:58:55;;;;;;;8.85;7.93;;;19.70;99.90;;;;;;5050805;28;20540;-82
2023/05/13 08:01:20;;;;;;;10.98;7.97;;;19.90;99.90;;;;;;5053288;28;20017;-81
2023/05/13 08:03:46;;;;;;;12.50;7.47;;;20.20;99.90;;;;;;5056761;28;20021;-80
2023/05/13 08:06:11;;;;;;;14.38;8.60;;;20.50;99.90;;;;;;5055944;28;20020;-81
2023/05/13 08:08:40;;;;;;;12.95;8.65;;;20.60;99.90;;;;;;5032187;28;20299;-88
2023/05/13 08:11:08;;;;;;;9.18;7.47;;;20.80;99.90;;;;;;5059693;28;20295;-85
2023/05/13 08:13:34;;;;;;;13.57;7.50;;;21.00;99.90;;;;;;5053340;28;20113;-82
2023/05/13 08:16:01;;;;;;;9.23;7.05;;;21.20;99.90;;;;;;5053258;28;20049;-79
2023/05/13 08:18:27;;;;;;;15.00;7.78;;;21.30;99.90;;;;;;5048871;28;20131;-78
2023/05/13 08:20:52;;;;;;;12.10;6.82;;;21.40;99.90;;;;;;5036049;28;20060;-80
2023/05/13 08:23:20;;;;;;;7.55;6.78;;;21.50;99.70;;;;;;5033090;28;20488;-80
2023/05/13 08:25:46;;;;;;;17.83;7.80;;;21.70;99.50;;;;;;5053958;28;20025;-81
2023/05/13 08:28:12;;;;;;;14.88;7.55;;;21.90;99.50;;;;;;5037087;28;20024;-80
2023/05/13 08:30:40;;;;;;;9.05;8.20;;;22.20;98.80;;;;;;5054354;28;20040;-80
2023/05/13 08:33:07;;;;;;;9.77;8.18;;;22.50;98.80;;;;;;5051536;28;20076;-80
2023/05/13 08:35:33;;;;;;;8.32;7.35;;;22.70;97.90;;;;;;5036974;28;20117;-83
2023/05/13 08:37:58;;;;;;;16.70;7.22;;;22.90;96.80;;;;;;5049214;28;20020;-79
2023/05/13 08:40:24;;;;;;;13.07;7.28;;;22.90;95.60;;;;;;5049936;28;20139;-79
2023/05/13 08:42:53;;;;;;;9.13;7.30;;;23.00;94.80;;;;;;5050395;28;20028;-78
2023/05/13 08:45:21;;;;;;;12.85;7.30;;;23.20;94.50;;;;;;5048109;28;20125;-80
2023/05/13 08:47:51;;;;;;;19.45;7.75;;;23.60;94.70;;;;;;5048714;28;20047;-80
2023/05/13 08:50:18;;;;;;;14.07;7.57;;;24.00;93.80;;;;;;5034223;28;20035;-81
2023/05/13 08:52:44;;;;;;;14.68;7.18;;;24.20;92.10;;;;;;5050397;28;20044;-79
2023/05/13 08:55:13;;;;;;;12.75;6.88;;;24.30;91.40;;;;;;5048719;28;20052;-81
2023/05/13 08:57:41;;;;;;;11.32;7.78;;;24.40;89.40;;;;;;5035008;28;20033;-80
2023/05/13 09:00:07;;;;;;;13.18;7.70;;;24.50;89.80;;;;;;5051521;28;20017;-81
2023/05/13 09:02:33;;;;;;;14.15;7.45;;;24.60;90.20;;;;;;5033081;28;20032;-81
2023/05/13 09:05:04;;;;;;;9.02;7.05;;;24.70;89.60;;;;;;5034420;28;20055;-81
2023/05/13 09:07:30;;;;;;;9.30;6.95;;;24.80;87.50;;;;;;5051571;28;20104;-82
2023/05/13 09:09:59;;;;;;;12.48;7.40;;;25.00;86.50;;;;;;5028016;28;20536;-81
2023/05/13 09:12:44;;;;;;;13.52;7.80;;;25.20;83.90;;;;;;5050113;28;20043;-80
2023/05/13 09:15:11;;;;;;;7.32;6.50;;;25.00;84.30;;;;;;5046898;28;20448;-81
2023/05/13 09:17:42;;;;;;;8.23;6.95;;;25.20;81.90;;;;;;5049306;28;20025;-80
2023/05/13 09:20:12;;;;;;;9.30;6.95;;;25.40;82.10;;;;;;5050376;28;20025;-80
2023/05/13 09:22:49;;;;;;;8.18;6.82;;;25.60;78.60;;;;;;5038536;28;20377;-80
2023/05/13 09:25:17;;;;;;;9.77;7.32;;;25.70;78.30;;;;;;5050783;28;20017;-80
2023/05/13 09:27:47;;;;;;;8.82;7.13;;;25.80;78.30;;;;;;5047021;28;20033;-81
2023/05/13 09:30:13;;;;;;;11.95;7.38;;;25.70;78.20;;;;;;5050257;28;20470;-80
2023/05/13 09:32:41;;;;;;;18.75;7.88;;;25.90;76.40;;;;;;5036560;28;20074;-81
2023/05/13 09:35:18;;;;;;;10.52;7.40;;;26.10;76.20;;;;;;5039854;28;20127;-81
2023/05/13 09:37:45;;;;;;;7.55;6.72;;;26.20;74.30;;;;;;5051739;28;20797;-80
2023/05/13 09:40:15;;;;;;;12.57;6.50;;;26.20;73.40;;;;;;5056027;28;20108;-81
2023/05/13 09:42:45;;;;;;;7.18;6.38;;;26.30;71.90;;;;;;5054222;28;20026;-80
2023/05/13 09:47:57;;;;;;;10.10;6.80;;;26.80;70.50;;;;;;5101388;22;20520;-79
2023/05/13 09:50:23;;;;;;;9.68;6.38;;;27.00;70.60;;;;;;5040153;28;20178;-79
2023/05/13 09:52:48;;;;;;;6.88;6.18;;;27.00;68.90;;;;;;5036525;28;20464;-79
2023/05/13 09:55:14;;;;;;;12.23;6.90;;;27.20;72.40;;;;;;5023206;28;20013;-79
2023/05/13 09:57:41;;;;;;;7.90;6.28;;;27.40;69.00;;;;;;5036733;28;20333;-79
2023/05/13 10:00:12;;;;;;;10.73;6.57;;;27.60;66.30;;;;;;5035753;28;20029;-80
2023/05/13 10:02:39;;;;;;;6.82;6.10;;;27.60;66.20;;;;;;5021998;28;20037;-79
2023/05/13 10:05:06;;;;;;;14.80;6.57;;;27.60;66.30;;;;;;5019445;28;20112;-79
2023/05/13 10:07:38;;;;;;;6.65;6.05;;;27.90;64.20;;;;;;5022644;28;20373;-79
2023/05/13 10:10:07;;;;;;;8.50;5.97;;;28.20;61.40;;;;;;5039174;28;20021;-79
2023/05/13 10:12:36;;;;;;;9.80;5.65;;;28.30;60.70;;;;;;5020509;28;20760;-78
2023/05/13 10:15:04;;;;;;;9.52;6.68;;;28.20;63.20;;;;;;5038319;28;20043;-78
2023/05/13 10:17:31;;;;;;;10.73;6.93;;;28.40;59.90;;;;;;5040871;28;20511;-78
2023/05/13 10:19:57;;;;;;;7.57;6.05;;;28.40;60.80;;;;;;5021246;28;20408;-78
2023/05/13 10:22:29;;;;;;;6.03;5.43;;;28.40;60.10;;;;;;5039578;28;20025;-78
2023/05/13 10:24:59;;;;;;;10.90;4.93;;;28.60;58.20;;;;;;5011698;28;20025;-79
2023/05/13 10:27:28;;;;;;;10.93;5.07;;;28.50;55.90;;;;;;5037069;28;20036;-79
2023/05/13 10:29:55;;;;;;;5.20;4.70;;;28.60;55.00;;;;;;5038977;28;20093;-78
2023/05/13 10:32:25;;;;;;;5.07;4.68;;;28.80;55.10;;;;;;5020887;28;20140;-79
2023/05/13 10:35:22;;;;;;;5.65;5.15;;;29.00;55.10;;;;;;5041649;28;20025;-77
2023/05/13 10:38:13;;;;;;;8.68;4.90;;;28.70;53.30;;;;;;5021885;28;20268;-78
2023/05/13 10:40:54;;;;;;;11.63;5.25;;;28.50;52.70;;;;;;5038073;28;20033;-79
2023/05/13 10:43:24;;;;;;;5.57;4.65;;;28.50;53.30;;;;;;5039314;28;20028;-79
2023/05/13 10:45:54;;;;;;;7.80;5.10;;;28.70;53.20;;;;;;5035775;28;20064;-79
2023/05/13 10:48:21;;;;;;;9.05;4.72;;;29.10;54.40;;;;;;5009543;28;20045;-79
2023/05/13 10:50:52;;;;;;;10.25;4.90;;;29.20;52.80;;;;;;5016834;28;20044;-80
2023/05/13 10:53:27;;;;;;;5.25;4.00;;;29.30;51.50;;;;;;5022940;28;20512;-79
2023/05/13 10:55:55;;;;;;;5.13;4.63;;;29.40;48.40;;;;;;5021960;28;20059;-78
2023/05/13 10:58:28;;;;;;;4.80;4.30;;;29.30;48.40;;;;;;5027029;28;20070;-77
2023/05/13 11:01:10;;;;;;;5.05;4.32;;;29.10;48.90;;;;;;5044692;28;20039;-80
2023/05/13 11:03:41;;;;;;;5.70;4.53;;;29.10;50.50;;;;;;5044838;28;20350;-80
2023/05/13 11:06:14;;;;;;;5.85;4.57;;;29.30;50.40;;;;;;5023685;28;20107;-78
2023/05/13 11:08:41;;;;;;;7.63;4.47;;;29.40;50.10;;;;;;5038693;28;20524;-80
2023/05/13 11:11:21;;;;;;;7.82;4.50;;;29.70;49.40;;;;;;5027868;28;20109;-78
2023/05/13 11:14:08;;;;;;;4.53;4.10;;;29.90;48.70;;;;;;5010033;28;20116;-78
2023/05/13 11:16:36;;;;;;;8.23;4.38;;;30.00;49.90;;;;;;5024116;28;20131;-78
2023/05/13 11:19:02;;;;;;;4.15;3.85;;;29.70;47.80;;;;;;5026272;28;20078;-79
2023/05/13 11:21:33;;;;;;;24.20;4.82;;;29.60;47.50;;;;;;5022837;28;20037;-77
2023/05/13 11:24:04;;;;;;;10.02;4.63;;;29.30;47.80;;;;;;5024723;28;20048;-77
2023/05/13 11:27:18;;;;;;;8.13;4.57;;;29.30;49.90;;;;;;5024715;28;20032;-77
2023/05/13 11:30:20;;;;;;;5.88;4.90;;;29.20;49.50;;;;;;4980337;28;20127;-77
2023/05/13 11:32:54;;;;;;;5.60;5.10;;;29.30;48.70;;;;;;5024463;28;20049;-79
2023/05/13 11:35:21;;;;;;;9.15;4.85;;;29.40;49.00;;;;;;5026063;28;20460;-79
2023/05/13 11:37:49;;;;;;;7.55;4.72;;;29.40;49.70;;;;;;5006893;28;20027;-79
2023/05/13 11:40:28;;;;;;;5.72;4.88;;;29.40;49.10;;;;;;5006574;28;20079;-80
2023/05/13 11:42:54;;;;;;;6.55;4.57;;;29.70;49.50;;;;;;4995823;28;20013;-79
2023/05/13 11:45:24;;;;;;;7.40;4.43;;;29.80;49.70;;;;;;5009828;28;20511;-79
2023/05/13 11:47:49;;;;;;;6.68;4.60;;;29.60;48.70;;;;;;5022764;28;20021;-79
2023/05/13 11:50:19;;;;;;;8.25;4.63;;;29.60;48.40;;;;;;5022509;28;20547;-79
2023/05/13 11:52:51;;;;;;;9.93;4.82;;;29.50;49.30;;;;;;5021198;28;20037;-79
2023/05/13 11:55:30;;;;;;;6.25;4.47;;;29.60;47.50;;;;;;5026699;28;20389;-79
2023/05/13 11:57:56;;;;;;;5.57;5.07;;;29.40;47.80;;;;;;5020588;28;20044;-79
2023/05/13 12:00:30;;;;;;;6.22;4.97;;;29.50;48.80;;;;;;5026019;28;20029;-80
2023/05/13 12:02:57;;;;;;;4.72;4.32;;;29.90;48.90;;;;;;5000628;28;20079;-80
2023/05/13 12:05:23;;;;;;;6.18;4.80;;;29.90;49.00;;;;;;5019602;28;20019;-79
2023/05/13 12:07:49;;;;;;;4.80;4.10;;;29.90;48.50;;;;;;5023621;28;20032;-80
2023/05/13 12:10:15;;;;;;;7.47;4.40;;;29.80;46.40;;;;;;5011019;28;20030;-77
2023/05/13 12:12:45;;;;;;;7.00;4.85;;;29.60;45.60;;;;;;5000847;28;20037;-80
2023/05/13 12:15:18;;;;;;;7.95;5.47;;;29.50;46.30;;;;;;5020448;28;20063;-80
2023/05/13 12:17:45;;;;;;;7.45;4.15;;;29.60;47.40;;;;;;5021421;28;20066;-80
2023/05/13 12:20:17;;;;;;;6.20;3.78;;;29.20;46.10;;;;;;5023024;28;20087;-78
2023/05/13 12:22:45;;;;;;;4.35;3.95;;;29.70;46.80;;;;;;5006299;28;20097;-80
2023/05/13 12:25:50;;;;;;;4.43;4.05;;;29.90;45.80;;;;;;5019508;28;20095;-78
2023/05/13 12:28:23;;;;;;;6.50;3.92;;;30.20;46.20;;;;;;5022470;28;20017;-77
2023/05/13 12:30:50;;;;;;;4.35;4.00;;;30.30;44.60;;;;;;5021822;28;20034;-78
2023/05/13 12:33:20;;;;;;;8.30;4.32;;;30.20;44.80;;;;;;5024535;28;20011;-78
2023/05/13 12:35:48;;;;;;;7.28;4.30;;;30.30;44.30;;;;;;5005952;28;20017;-78
2023/05/13 12:38:16;;;;;;;4.82;4.25;;;30.50;44.30;;;;;;5023232;28;20504;-77
2023/05/13 12:40:44;;;;;;;4.90;4.50;;;30.50;44.30;;;;;;5024509;28;20025;-78
2023/05/13 12:43:12;;;;;;;4.60;4.13;;;30.80;44.50;;;;;;5022758;28;20717;-78
2023/05/13 12:45:39;;;;;;;6.20;4.80;;;30.70;43.90;;;;;;5023320;28;20025;-78